createdAt,value
2023-05-10T09:33:47.213Z,97374.31
2023-05-10T09:39:08.665Z,97363.38
2023-05-10T09:44:30.022Z,97352.91
2023-05-10T09:49:52.464Z,97353.56
2023-05-10T09:55:14.175Z,97353.31
2023-05-10T10:00:45.950Z,97352.91
2023-05-10T10:06:15.887Z,97355.03
2023-05-10T10:11:44.243Z,97350.00
2023-05-10T10:17:08.717Z,97343.41
2023-05-10T10:22:30.321Z,97328.28
2023-05-10T10:27:54.782Z,97347.84
2023-05-10T10:33:37.787Z,97343.28
2023-05-10T10:39:04.305Z,97340.66
2023-05-10T10:44:33.269Z,97336.66
2023-05-10T10:50:05.216Z,97337.69
2023-05-10T10:55:28.487Z,97330.78
2023-05-10T11:00:49.637Z,97317.03
2023-05-10T11:06:10.775Z,97319.19
2023-05-10T11:11:32.616Z,97309.88
2023-05-10T11:16:54.772Z,97317.03
2023-05-10T11:22:16.164Z,97319.94
2023-05-10T11:27:38.937Z,97309.66
2023-05-10T11:33:00.620Z,97324.25
2023-05-10T11:38:22.061Z,97305.72
2023-05-10T11:43:43.415Z,97320.72
2023-05-10T11:49:08.021Z,97311.41
2023-05-10T11:54:28.811Z,97318.50
2023-05-10T11:59:54.723Z,97319.72
2023-05-10T12:05:15.911Z,97311.56
2023-05-10T12:10:37.051Z,97315.47
2023-05-10T12:16:02.061Z,97316.25
2023-05-10T12:21:23.698Z,97326.59
2023-05-10T12:32:41.985Z,97326.28
2023-05-10T12:38:03.124Z,97330.88
2023-05-10T12:43:24.196Z,97336.22
2023-05-10T12:48:45.554Z,97329.38
2023-05-10T12:54:10.936Z,97331.44
2023-05-10T12:59:32.601Z,97330.34
2023-05-10T13:04:54.249Z,97345.13
2023-05-10T13:10:15.693Z,97333.81
2023-05-10T13:15:36.884Z,97332.50
2023-05-10T13:20:58.655Z,97334.22
2023-05-10T13:26:21.086Z,97320.38
2023-05-10T13:31:42.387Z,97329.78
2023-05-10T13:37:03.336Z,97335.34
2023-05-10T13:42:25.019Z,97334.31
2023-05-10T13:47:46.403Z,97327.22
2023-05-10T13:53:07.732Z,97325.16
2023-05-10T13:58:28.888Z,97323.75
2023-05-10T14:03:50.954Z,97314.44
2023-05-10T14:09:12.280Z,97329.81
2023-05-10T14:14:33.136Z,97317.13
2023-05-10T14:19:54.533Z,97312.28
2023-05-10T14:25:15.905Z,97316.94
2023-05-10T14:30:37.758Z,97315.19
2023-05-10T14:35:58.941Z,97326.91
2023-05-10T14:41:20.106Z,97314.63
2023-05-10T14:46:41.532Z,97311.81
2023-05-10T14:52:03.033Z,97326.19
2023-05-10T14:57:23.620Z,97331.03
2023-05-10T15:02:44.835Z,97328.69
2023-05-10T15:08:07.003Z,97335.66
2023-05-10T15:13:28.259Z,97341.06
2023-05-10T15:18:50.215Z,97349.06
2023-05-10T15:24:11.617Z,97345.78
2023-05-10T15:29:33.771Z,97356.16
2023-05-10T15:34:55.415Z,97357.47
2023-05-10T15:40:17.422Z,97359.44
2023-05-10T15:45:40.114Z,97360.44
2023-05-10T15:51:01.297Z,97347.75
2023-05-10T15:56:22.548Z,97352.53
2023-05-10T16:01:43.505Z,97359.91
2023-05-10T16:07:04.812Z,97356.06
2023-05-10T16:12:26.259Z,97354.22
2023-05-10T16:17:47.538Z,97359.31
2023-05-10T16:23:08.726Z,97351.38
2023-05-10T16:28:29.764Z,97359.38
2023-05-10T16:33:50.509Z,97358.16
2023-05-10T16:39:11.503Z,97366.56
2023-05-10T16:44:32.635Z,97359.09
2023-05-10T16:49:53.299Z,97366.97
2023-05-10T16:55:14.084Z,97370.25
2023-05-10T17:00:35.053Z,97376.72
2023-05-10T17:05:56.273Z,97378.91
2023-05-10T17:11:17.343Z,97390.91
2023-05-10T17:16:38.180Z,97396.34
2023-05-10T17:21:59.216Z,97399.78
2023-05-10T17:27:19.924Z,97399.06
2023-05-10T17:32:41.234Z,97404.97
2023-05-10T17:38:02.244Z,97412.25
2023-05-10T17:43:23.503Z,97422.06
2023-05-10T17:48:44.102Z,97421.50
2023-05-10T17:54:04.902Z,97430.56
2023-05-10T17:59:25.632Z,97432.28
2023-05-10T18:04:46.855Z,97438.66
2023-05-10T18:10:08.288Z,97451.09
2023-05-10T18:15:28.819Z,97448.09
2023-05-10T18:20:56.366Z,97444.91
2023-05-10T18:26:18.191Z,97449.78
2023-05-10T18:31:39.306Z,97456.69
2023-05-10T18:37:00.004Z,97470.81
2023-05-10T18:42:20.667Z,97460.56
2023-05-10T18:47:41.501Z,97475.91
2023-05-10T18:53:03.886Z,97487.16
2023-05-10T18:58:25.983Z,97500.91
2023-05-10T19:03:46.608Z,97505.19
2023-05-10T19:09:08.661Z,97503.16
2023-05-10T19:14:29.827Z,97509.88
2023-05-10T19:19:50.833Z,97517.72
2023-05-10T19:25:13.038Z,97523.59
2023-05-10T19:30:34.021Z,97538.34
2023-05-10T19:35:55.317Z,97525.81
2023-05-10T19:41:16.101Z,97530.38
2023-05-10T19:46:36.906Z,97542.25
2023-05-10T19:51:57.621Z,97544.00
2023-05-10T19:57:18.497Z,97541.09
2023-05-10T20:02:39.630Z,97547.53
2023-05-10T20:08:00.060Z,97543.63
2023-05-10T20:13:20.809Z,97544.72
2023-05-10T20:18:41.626Z,97545.84
2023-05-10T20:24:02.528Z,97540.44
2023-05-10T20:29:22.921Z,97546.94
2023-05-10T20:34:44.169Z,97540.91
2023-05-10T20:40:05.515Z,97536.31
2023-05-10T20:45:26.416Z,97537.13
2023-05-10T20:50:47.093Z,97532.31
2023-05-10T20:56:07.980Z,97527.09
2023-05-10T21:01:28.620Z,97530.28
2023-05-10T21:06:49.435Z,97533.06
2023-05-10T21:12:10.019Z,97522.16
2023-05-10T21:17:30.517Z,97518.44
2023-05-10T21:22:51.354Z,97528.22
2023-05-10T21:28:11.986Z,97527.91
2023-05-10T21:33:32.780Z,97543.31
2023-05-10T21:38:53.385Z,97537.53
2023-05-10T21:44:14.211Z,97541.78
2023-05-10T21:49:34.952Z,97536.81
2023-05-10T21:54:55.695Z,97528.06
2023-05-10T22:00:17.444Z,97533.25
2023-05-10T22:05:38.866Z,97528.47
2023-05-10T22:11:00.032Z,97533.53
2023-05-10T22:16:21.237Z,97526.47
2023-05-10T22:21:42.595Z,97533.44
2023-05-10T22:27:03.590Z,97538.44
2023-05-10T22:32:24.271Z,97532.09
2023-05-10T22:37:44.845Z,97537.88
2023-05-10T22:43:05.524Z,97531.38
2023-05-10T22:48:25.985Z,97528.25
2023-05-10T22:53:46.737Z,97527.44
2023-05-10T22:59:07.258Z,97526.63
2023-05-10T23:04:28.090Z,97532.25
2023-05-10T23:09:48.874Z,97529.44
2023-05-10T23:15:10.082Z,97528.69
2023-05-10T23:20:30.809Z,97525.91
2023-05-10T23:25:51.587Z,97537.41
2023-05-10T23:31:12.249Z,97538.75
2023-05-10T23:36:33.522Z,97523.00
2023-05-10T23:41:54.905Z,97535.69
2023-05-10T23:47:15.631Z,97528.63
2023-05-10T23:52:36.178Z,97528.41
2023-05-10T23:57:57.016Z,97521.16
